sensor_id;sensor_type;location;lat;lon;timestamp;P1;durP1;ratioP1;P2;durP2;ratioP2
38853;SDS011;24606;51.992;4.198;2023-02-27T00:04:34;0.70;;;0.60;;
38853;SDS011;24606;51.992;4.198;2023-02-27T00:09:35;4.78;;;1.42;;
38853;SDS011;24606;51.992;4.198;2023-02-27T00:14:39;6.30;;;1.20;;
38853;SDS011;24606;51.992;4.198;2023-02-27T00:19:42;2.67;;;1.30;;
38853;SDS011;24606;51.992;4.198;2023-02-27T00:24:44;1.58;;;1.00;;
38853;SDS011;24606;51.992;4.198;2023-02-27T00:29:46;3.10;;;0.57;;
38853;SDS011;24606;51.992;4.198;2023-02-27T00:34:49;3.60;;;1.25;;
38853;SDS011;24606;51.992;4.198;2023-02-27T00:39:51;2.35;;;1.25;;
38853;SDS011;24606;51.992;4.198;2023-02-27T00:44:53;2.85;;;0.85;;
38853;SDS011;24606;51.992;4.198;2023-02-27T00:49:56;3.83;;;0.98;;
38853;SDS011;24606;51.992;4.198;2023-02-27T00:54:58;3.78;;;1.70;;
38853;SDS011;24606;51.992;4.198;2023-02-27T01:00:00;3.28;;;0.85;;
38853;SDS011;24606;51.992;4.198;2023-02-27T01:05:07;2.20;;;0.82;;
38853;SDS011;24606;51.992;4.198;2023-02-27T01:10:09;2.50;;;1.00;;
38853;SDS011;24606;51.992;4.198;2023-02-27T01:15:12;1.50;;;0.82;;
38853;SDS011;24606;51.992;4.198;2023-02-27T01:20:15;1.27;;;0.82;;
38853;SDS011;24606;51.992;4.198;2023-02-27T01:25:18;2.00;;;1.10;;
38853;SDS011;24606;51.992;4.198;2023-02-27T01:30:20;2.92;;;0.93;;
38853;SDS011;24606;51.992;4.198;2023-02-27T01:35:23;1.45;;;0.70;;
38853;SDS011;24606;51.992;4.198;2023-02-27T01:40:25;3.35;;;0.98;;
38853;SDS011;24606;51.992;4.198;2023-02-27T01:50:32;2.25;;;0.70;;
38853;SDS011;24606;51.992;4.198;2023-02-27T01:55:37;2.97;;;0.70;;
38853;SDS011;24606;51.992;4.198;2023-02-27T02:00:39;2.40;;;0.80;;
38853;SDS011;24606;51.992;4.198;2023-02-27T02:05:43;6.70;;;0.80;;
38853;SDS011;24606;51.992;4.198;2023-02-27T02:10:46;1.38;;;0.63;;
38853;SDS011;24606;51.992;4.198;2023-02-27T02:15:54;1.40;;;0.60;;
38853;SDS011;24606;51.992;4.198;2023-02-27T02:26:46;1.27;;;0.60;;
38853;SDS011;24606;51.992;4.198;2023-02-27T02:32:13;1.90;;;0.70;;
38853;SDS011;24606;51.992;4.198;2023-02-27T02:37:36;1.35;;;0.40;;
38853;SDS011;24606;51.992;4.198;2023-02-27T02:43:03;0.85;;;0.45;;
38853;SDS011;24606;51.992;4.198;2023-02-27T02:48:10;2.05;;;0.63;;
38853;SDS011;24606;51.992;4.198;2023-02-27T02:53:20;2.58;;;0.57;;
38853;SDS011;24606;51.992;4.198;2023-02-27T02:58:30;1.77;;;0.60;;
38853;SDS011;24606;51.992;4.198;2023-02-27T03:03:38;0.70;;;0.43;;
38853;SDS011;24606;51.992;4.198;2023-02-27T03:08:45;0.80;;;0.45;;
38853;SDS011;24606;51.992;4.198;2023-02-27T03:13:53;1.15;;;0.50;;
38853;SDS011;24606;51.992;4.198;2023-02-27T03:19:01;1.10;;;0.63;;
38853;SDS011;24606;51.992;4.198;2023-02-27T03:24:08;3.75;;;0.55;;
38853;SDS011;24606;51.992;4.198;2023-02-27T03:29:18;1.30;;;0.50;;
38853;SDS011;24606;51.992;4.198;2023-02-27T03:34:25;0.57;;;0.32;;
38853;SDS011;24606;51.992;4.198;2023-02-27T03:39:32;0.50;;;0.40;;
38853;SDS011;24606;51.992;4.198;2023-02-27T03:44:45;0.55;;;0.40;;
38853;SDS011;24606;51.992;4.198;2023-02-27T03:49:54;4.50;;;0.60;;
38853;SDS011;24606;51.992;4.198;2023-02-27T03:54:57;0.75;;;0.57;;
38853;SDS011;24606;51.992;4.198;2023-02-27T04:00:04;0.90;;;0.40;;
38853;SDS011;24606;51.992;4.198;2023-02-27T04:05:08;0.55;;;0.40;;
38853;SDS011;24606;51.992;4.198;2023-02-27T04:10:14;1.30;;;0.60;;
38853;SDS011;24606;51.992;4.198;2023-02-27T04:15:24;1.58;;;0.57;;
38853;SDS011;24606;51.992;4.198;2023-02-27T04:20:35;1.33;;;0.50;;
38853;SDS011;24606;51.992;4.198;2023-02-27T04:25:49;1.08;;;0.40;;
38853;SDS011;24606;51.992;4.198;2023-02-27T04:31:06;0.65;;;0.40;;
38853;SDS011;24606;51.992;4.198;2023-02-27T04:36:16;0.50;;;0.30;;
38853;SDS011;24606;51.992;4.198;2023-02-27T04:41:24;0.52;;;0.50;;
38853;SDS011;24606;51.992;4.198;2023-02-27T04:46:30;0.57;;;0.28;;
38853;SDS011;24606;51.992;4.198;2023-02-27T04:51:34;0.80;;;0.30;;
38853;SDS011;24606;51.992;4.198;2023-02-27T04:56:40;0.98;;;0.30;;
38853;SDS011;24606;51.992;4.198;2023-02-27T05:01:46;2.42;;;0.52;;
38853;SDS011;24606;51.992;4.198;2023-02-27T05:06:54;1.10;;;0.50;;
38853;SDS011;24606;51.992;4.198;2023-02-27T05:11:57;1.25;;;0.40;;
38853;SDS011;24606;51.992;4.198;2023-02-27T05:17:05;2.95;;;0.55;;
38853;SDS011;24606;51.992;4.198;2023-02-27T05:22:12;1.38;;;0.40;;
38853;SDS011;24606;51.992;4.198;2023-02-27T05:27:34;1.17;;;0.43;;
38853;SDS011;24606;51.992;4.198;2023-02-27T05:32:44;1.73;;;0.50;;
38853;SDS011;24606;51.992;4.198;2023-02-27T05:37:52;1.20;;;0.40;;
38853;SDS011;24606;51.992;4.198;2023-02-27T05:43:00;0.75;;;0.47;;
38853;SDS011;24606;51.992;4.198;2023-02-27T05:48:08;0.52;;;0.20;;
38853;SDS011;24606;51.992;4.198;2023-02-27T05:53:15;0.77;;;0.50;;
38853;SDS011;24606;51.992;4.198;2023-02-27T05:58:20;1.30;;;0.30;;
38853;SDS011;24606;51.992;4.198;2023-02-27T06:03:27;0.75;;;0.40;;
38853;SDS011;24606;51.992;4.198;2023-02-27T06:08:31;1.45;;;0.40;;
38853;SDS011;24606;51.992;4.198;2023-02-27T06:13:33;2.10;;;0.50;;
38853;SDS011;24606;51.992;4.198;2023-02-27T06:18:36;0.57;;;0.40;;
38853;SDS011;24606;51.992;4.198;2023-02-27T06:23:38;0.43;;;0.40;;
38853;SDS011;24606;51.992;4.198;2023-02-27T06:28:40;0.88;;;0.40;;
38853;SDS011;24606;51.992;4.198;2023-02-27T06:33:43;1.70;;;0.50;;
38853;SDS011;24606;51.992;4.198;2023-02-27T06:38:45;1.85;;;0.30;;
38853;SDS011;24606;51.992;4.198;2023-02-27T06:43:47;3.20;;;0.32;;
38853;SDS011;24606;51.992;4.198;2023-02-27T06:48:50;3.75;;;0.75;;
38853;SDS011;24606;51.992;4.198;2023-02-27T06:53:52;0.93;;;0.45;;
38853;SDS011;24606;51.992;4.198;2023-02-27T06:58:54;1.05;;;0.60;;
38853;SDS011;24606;51.992;4.198;2023-02-27T07:14:10;0.95;;;0.32;;
38853;SDS011;24606;51.992;4.198;2023-02-27T07:19:14;4.50;;;0.68;;
38853;SDS011;24606;51.992;4.198;2023-02-27T07:24:17;2.53;;;0.68;;
38853;SDS011;24606;51.992;4.198;2023-02-27T07:29:21;0.70;;;0.40;;
38853;SDS011;24606;51.992;4.198;2023-02-27T07:34:23;2.20;;;0.40;;
38853;SDS011;24606;51.992;4.198;2023-02-27T07:39:24;2.50;;;0.65;;
38853;SDS011;24606;51.992;4.198;2023-02-27T07:44:28;1.60;;;0.43;;
38853;SDS011;24606;51.992;4.198;2023-02-27T07:49:30;1.33;;;0.52;;
38853;SDS011;24606;51.992;4.198;2023-02-27T07:54:31;2.55;;;0.68;;
38853;SDS011;24606;51.992;4.198;2023-02-27T07:59:35;1.25;;;0.50;;
38853;SDS011;24606;51.992;4.198;2023-02-27T08:04:37;2.30;;;0.70;;
38853;SDS011;24606;51.992;4.198;2023-02-27T08:09:38;1.40;;;0.57;;
38853;SDS011;24606;51.992;4.198;2023-02-27T08:14:42;1.77;;;0.60;;
38853;SDS011;24606;51.992;4.198;2023-02-27T08:19:43;1.83;;;0.60;;
38853;SDS011;24606;51.992;4.198;2023-02-27T08:24:45;4.55;;;0.90;;
38853;SDS011;24606;51.992;4.198;2023-02-27T08:29:48;2.15;;;0.63;;
38853;SDS011;24606;51.992;4.198;2023-02-27T08:34:50;2.35;;;0.68;;
38853;SDS011;24606;51.992;4.198;2023-02-27T08:39:52;2.55;;;0.73;;
38853;SDS011;24606;51.992;4.198;2023-02-27T08:44:56;1.90;;;0.68;;
38853;SDS011;24606;51.992;4.198;2023-02-27T08:49:58;1.75;;;0.70;;
38853;SDS011;24606;51.992;4.198;2023-02-27T08:55:00;2.90;;;0.80;;
38853;SDS011;24606;51.992;4.198;2023-02-27T09:00:03;4.05;;;0.93;;
38853;SDS011;24606;51.992;4.198;2023-02-27T09:05:06;1.75;;;0.82;;
38853;SDS011;24606;51.992;4.198;2023-02-27T09:10:09;2.95;;;0.75;;
38853;SDS011;24606;51.992;4.198;2023-02-27T09:15:13;3.35;;;1.00;;
38853;SDS011;24606;51.992;4.198;2023-02-27T09:20:15;5.35;;;0.63;;
38853;SDS011;24606;51.992;4.198;2023-02-27T09:25:17;3.00;;;0.80;;
38853;SDS011;24606;51.992;4.198;2023-02-27T09:30:21;2.00;;;0.93;;
38853;SDS011;24606;51.992;4.198;2023-02-27T09:35:23;3.22;;;1.00;;
38853;SDS011;24606;51.992;4.198;2023-02-27T09:40:27;1.85;;;0.63;;
38853;SDS011;24606;51.992;4.198;2023-02-27T09:45:31;3.47;;;0.82;;
38853;SDS011;24606;51.992;4.198;2023-02-27T09:50:38;3.53;;;1.05;;
38853;SDS011;24606;51.992;4.198;2023-02-27T09:55:42;2.80;;;1.00;;
38853;SDS011;24606;51.992;4.198;2023-02-27T10:00:48;1.88;;;1.13;;
38853;SDS011;24606;51.992;4.198;2023-02-27T10:05:57;2.47;;;1.20;;
38853;SDS011;24606;51.992;4.198;2023-02-27T10:11:18;4.63;;;0.75;;
38853;SDS011;24606;51.992;4.198;2023-02-27T10:16:37;4.80;;;1.35;;
38853;SDS011;24606;51.992;4.198;2023-02-27T10:21:50;2.22;;;0.93;;
38853;SDS011;24606;51.992;4.198;2023-02-27T10:26:58;2.33;;;0.77;;
38853;SDS011;24606;51.992;4.198;2023-02-27T10:32:12;1.75;;;0.68;;
38853;SDS011;24606;51.992;4.198;2023-02-27T10:37:21;1.30;;;0.65;;
38853;SDS011;24606;51.992;4.198;2023-02-27T10:42:26;3.00;;;0.73;;
38853;SDS011;24606;51.992;4.198;2023-02-27T10:47:34;1.30;;;0.60;;
38853;SDS011;24606;51.992;4.198;2023-02-27T10:52:46;2.85;;;1.20;;
38853;SDS011;24606;51.992;4.198;2023-02-27T10:57:50;1.50;;;0.80;;
38853;SDS011;24606;51.992;4.198;2023-02-27T11:02:56;1.70;;;0.63;;
38853;SDS011;24606;51.992;4.198;2023-02-27T11:08:09;1.25;;;0.50;;
38853;SDS011;24606;51.992;4.198;2023-02-27T11:13:17;7.40;;;0.52;;
38853;SDS011;24606;51.992;4.198;2023-02-27T11:18:25;1.38;;;0.40;;
38853;SDS011;24606;51.992;4.198;2023-02-27T11:23:28;1.08;;;0.75;;
38853;SDS011;24606;51.992;4.198;2023-02-27T11:28:33;3.42;;;1.50;;
38853;SDS011;24606;51.992;4.198;2023-02-27T11:33:37;2.17;;;1.13;;
38853;SDS011;24606;51.992;4.198;2023-02-27T11:38:41;4.15;;;1.27;;
38853;SDS011;24606;51.992;4.198;2023-02-27T11:43:51;1.23;;;0.68;;
38853;SDS011;24606;51.992;4.198;2023-02-27T11:48:58;1.95;;;1.00;;
38853;SDS011;24606;51.992;4.198;2023-02-27T11:54:14;3.42;;;1.42;;
38853;SDS011;24606;51.992;4.198;2023-02-27T11:59:28;1.52;;;0.85;;
38853;SDS011;24606;51.992;4.198;2023-02-27T12:04:42;1.85;;;0.93;;
38853;SDS011;24606;51.992;4.198;2023-02-27T12:09:50;1.45;;;0.68;;
38853;SDS011;24606;51.992;4.198;2023-02-27T12:15:01;0.70;;;0.40;;
38853;SDS011;24606;51.992;4.198;2023-02-27T12:20:26;1.35;;;0.70;;
38853;SDS011;24606;51.992;4.198;2023-02-27T12:25:34;5.65;;;0.63;;
38853;SDS011;24606;51.992;4.198;2023-02-27T12:30:41;2.25;;;1.20;;
38853;SDS011;24606;51.992;4.198;2023-02-27T12:35:51;2.53;;;1.30;;
38853;SDS011;24606;51.992;4.198;2023-02-27T12:41:00;2.28;;;1.50;;
38853;SDS011;24606;51.992;4.198;2023-02-27T12:46:27;5.45;;;1.52;;
38853;SDS011;24606;51.992;4.198;2023-02-27T12:51:41;6.82;;;1.10;;
38853;SDS011;24606;51.992;4.198;2023-02-27T12:56:52;1.38;;;0.60;;
38853;SDS011;24606;51.992;4.198;2023-02-27T13:02:02;1.45;;;0.80;;
38853;SDS011;24606;51.992;4.198;2023-02-27T13:07:27;2.92;;;1.10;;
38853;SDS011;24606;51.992;4.198;2023-02-27T13:12:36;3.20;;;1.17;;
38853;SDS011;24606;51.992;4.198;2023-02-27T13:17:44;2.58;;;1.15;;
38853;SDS011;24606;51.992;4.198;2023-02-27T13:22:51;2.63;;;0.98;;
38853;SDS011;24606;51.992;4.198;2023-02-27T13:27:57;1.20;;;0.90;;
38853;SDS011;24606;51.992;4.198;2023-02-27T13:33:05;2.72;;;1.00;;
38853;SDS011;24606;51.992;4.198;2023-02-27T13:38:30;3.53;;;1.35;;
38853;SDS011;24606;51.992;4.198;2023-02-27T13:43:42;2.05;;;1.10;;
38853;SDS011;24606;51.992;4.198;2023-02-27T13:48:45;2.05;;;0.57;;
38853;SDS011;24606;51.992;4.198;2023-02-27T13:53:50;2.42;;;1.08;;
38853;SDS011;24606;51.992;4.198;2023-02-27T13:59:11;1.95;;;0.80;;
38853;SDS011;24606;51.992;4.198;2023-02-27T14:04:19;1.38;;;0.80;;
38853;SDS011;24606;51.992;4.198;2023-02-27T14:09:25;2.55;;;0.68;;
38853;SDS011;24606;51.992;4.198;2023-02-27T14:14:40;1.75;;;0.70;;
38853;SDS011;24606;51.992;4.198;2023-02-27T14:19:48;3.40;;;1.10;;
38853;SDS011;24606;51.992;4.198;2023-02-27T14:24:57;5.45;;;0.93;;
38853;SDS011;24606;51.992;4.198;2023-02-27T14:30:05;4.68;;;0.90;;
38853;SDS011;24606;51.992;4.198;2023-02-27T14:35:21;4.45;;;0.45;;
38853;SDS011;24606;51.992;4.198;2023-02-27T14:40:26;2.05;;;0.73;;
38853;SDS011;24606;51.992;4.198;2023-02-27T14:45:33;2.05;;;0.80;;
38853;SDS011;24606;51.992;4.198;2023-02-27T14:50:37;1.67;;;1.10;;
38853;SDS011;24606;51.992;4.198;2023-02-27T14:55:42;2.05;;;0.70;;
38853;SDS011;24606;51.992;4.198;2023-02-27T15:00:58;4.95;;;1.10;;
38853;SDS011;24606;51.992;4.198;2023-02-27T15:06:12;2.03;;;1.02;;
38853;SDS011;24606;51.992;4.198;2023-02-27T15:11:19;1.05;;;0.70;;
38853;SDS011;24606;51.992;4.198;2023-02-27T15:16:30;1.38;;;0.60;;
38853;SDS011;24606;51.992;4.198;2023-02-27T15:21:38;1.55;;;0.68;;
38853;SDS011;24606;51.992;4.198;2023-02-27T15:26:43;1.63;;;0.52;;
38853;SDS011;24606;51.992;4.198;2023-02-27T15:31:48;3.55;;;0.60;;
38853;SDS011;24606;51.992;4.198;2023-02-27T15:36:51;2.20;;;0.52;;
38853;SDS011;24606;51.992;4.198;2023-02-27T15:41:58;1.45;;;0.30;;
38853;SDS011;24606;51.992;4.198;2023-02-27T15:47:03;3.38;;;0.40;;
38853;SDS011;24606;51.992;4.198;2023-02-27T15:52:11;4.88;;;0.40;;
38853;SDS011;24606;51.992;4.198;2023-02-27T15:57:16;0.85;;;0.40;;
38853;SDS011;24606;51.992;4.198;2023-02-27T16:02:20;2.45;;;0.40;;
38853;SDS011;24606;51.992;4.198;2023-02-27T16:07:24;0.93;;;0.35;;
38853;SDS011;24606;51.992;4.198;2023-02-27T16:12:30;0.30;;;0.20;;
38853;SDS011;24606;51.992;4.198;2023-02-27T16:17:33;2.72;;;0.40;;
38853;SDS011;24606;51.992;4.198;2023-02-27T16:22:35;3.58;;;0.35;;
38853;SDS011;24606;51.992;4.198;2023-02-27T16:27:40;1.17;;;0.40;;
38853;SDS011;24606;51.992;4.198;2023-02-27T16:32:54;2.87;;;0.50;;
38853;SDS011;24606;51.992;4.198;2023-02-27T16:37:59;0.73;;;0.30;;
38853;SDS011;24606;51.992;4.198;2023-02-27T16:43:03;1.77;;;0.38;;
38853;SDS011;24606;51.992;4.198;2023-02-27T16:48:05;1.77;;;0.30;;
38853;SDS011;24606;51.992;4.198;2023-02-27T16:53:07;2.75;;;0.50;;
38853;SDS011;24606;51.992;4.198;2023-02-27T16:58:10;2.88;;;0.47;;
38853;SDS011;24606;51.992;4.198;2023-02-27T17:03:14;3.30;;;0.57;;
38853;SDS011;24606;51.992;4.198;2023-02-27T17:08:17;10.98;;;0.90;;
38853;SDS011;24606;51.992;4.198;2023-02-27T17:13:22;4.47;;;1.00;;
38853;SDS011;24606;51.992;4.198;2023-02-27T17:18:24;4.97;;;1.17;;
38853;SDS011;24606;51.992;4.198;2023-02-27T17:28:30;4.47;;;1.00;;
38853;SDS011;24606;51.992;4.198;2023-02-27T17:33:32;7.93;;;1.00;;
38853;SDS011;24606;51.992;4.198;2023-02-27T17:38:34;5.63;;;1.45;;
38853;SDS011;24606;51.992;4.198;2023-02-27T17:43:38;7.07;;;1.10;;
38853;SDS011;24606;51.992;4.198;2023-02-27T17:48:40;2.08;;;1.08;;
38853;SDS011;24606;51.992;4.198;2023-02-27T17:53:42;4.82;;;1.30;;
38853;SDS011;24606;51.992;4.198;2023-02-27T17:58:46;7.60;;;1.50;;
38853;SDS011;24606;51.992;4.198;2023-02-27T18:03:48;7.38;;;2.17;;
38853;SDS011;24606;51.992;4.198;2023-02-27T18:08:50;5.80;;;0.93;;
38853;SDS011;24606;51.992;4.198;2023-02-27T18:13:53;3.35;;;1.80;;
38853;SDS011;24606;51.992;4.198;2023-02-27T18:18:55;4.53;;;2.00;;
38853;SDS011;24606;51.992;4.198;2023-02-27T18:23:57;8.57;;;1.88;;
38853;SDS011;24606;51.992;4.198;2023-02-27T18:29:01;4.60;;;1.67;;
38853;SDS011;24606;51.992;4.198;2023-02-27T18:34:05;6.50;;;2.47;;
38853;SDS011;24606;51.992;4.198;2023-02-27T18:39:08;3.47;;;1.50;;
38853;SDS011;24606;51.992;4.198;2023-02-27T18:44:11;4.32;;;1.60;;
38853;SDS011;24606;51.992;4.198;2023-02-27T18:49:14;7.28;;;2.08;;
38853;SDS011;24606;51.992;4.198;2023-02-27T18:54:15;10.32;;;2.38;;
38853;SDS011;24606;51.992;4.198;2023-02-27T18:59:19;4.63;;;1.90;;
38853;SDS011;24606;51.992;4.198;2023-02-27T19:04:21;4.28;;;1.80;;
38853;SDS011;24606;51.992;4.198;2023-02-27T19:09:24;5.70;;;1.73;;
38853;SDS011;24606;51.992;4.198;2023-02-27T19:14:33;3.60;;;1.85;;
38853;SDS011;24606;51.992;4.198;2023-02-27T19:19:34;3.45;;;2.00;;
38853;SDS011;24606;51.992;4.198;2023-02-27T19:24:36;6.10;;;1.50;;
38853;SDS011;24606;51.992;4.198;2023-02-27T19:29:40;2.35;;;1.00;;
38853;SDS011;24606;51.992;4.198;2023-02-27T19:34:42;3.58;;;1.13;;
38853;SDS011;24606;51.992;4.198;2023-02-27T19:39:43;2.50;;;0.95;;
38853;SDS011;24606;51.992;4.198;2023-02-27T19:44:47;3.92;;;0.90;;
38853;SDS011;24606;51.992;4.198;2023-02-27T19:49:49;1.98;;;0.70;;
38853;SDS011;24606;51.992;4.198;2023-02-27T19:54:50;1.92;;;0.80;;
38853;SDS011;24606;51.992;4.198;2023-02-27T19:59:54;2.42;;;0.88;;
38853;SDS011;24606;51.992;4.198;2023-02-27T20:04:56;1.48;;;0.65;;
38853;SDS011;24606;51.992;4.198;2023-02-27T20:09:58;5.88;;;0.80;;
38853;SDS011;24606;51.992;4.198;2023-02-27T20:15:02;5.32;;;1.10;;
38853;SDS011;24606;51.992;4.198;2023-02-27T20:20:09;6.47;;;1.30;;
38853;SDS011;24606;51.992;4.198;2023-02-27T20:25:11;6.13;;;1.20;;
38853;SDS011;24606;51.992;4.198;2023-02-27T20:30:15;6.28;;;0.80;;
38853;SDS011;24606;51.992;4.198;2023-02-27T20:35:17;4.95;;;1.40;;
38853;SDS011;24606;51.992;4.198;2023-02-27T20:40:19;7.55;;;1.58;;
38853;SDS011;24606;51.992;4.198;2023-02-27T20:45:22;12.98;;;1.50;;
38853;SDS011;24606;51.992;4.198;2023-02-27T20:50:24;9.23;;;2.03;;
38853;SDS011;24606;51.992;4.198;2023-02-27T20:55:26;13.98;;;1.85;;
38853;SDS011;24606;51.992;4.198;2023-02-27T21:00:29;7.20;;;1.55;;
38853;SDS011;24606;51.992;4.198;2023-02-27T21:05:31;13.35;;;1.75;;
38853;SDS011;24606;51.992;4.198;2023-02-27T21:10:36;8.85;;;1.50;;
38853;SDS011;24606;51.992;4.198;2023-02-27T21:15:41;10.07;;;1.77;;
38853;SDS011;24606;51.992;4.198;2023-02-27T21:20:43;6.25;;;1.25;;
38853;SDS011;24606;51.992;4.198;2023-02-27T21:25:45;6.95;;;1.83;;
38853;SDS011;24606;51.992;4.198;2023-02-27T21:30:49;6.50;;;1.35;;
38853;SDS011;24606;51.992;4.198;2023-02-27T21:35:53;10.20;;;1.83;;
38853;SDS011;24606;51.992;4.198;2023-02-27T21:40:55;10.32;;;1.73;;
38853;SDS011;24606;51.992;4.198;2023-02-27T21:46:03;9.57;;;1.63;;
38853;SDS011;24606;51.992;4.198;2023-02-27T21:51:05;13.68;;;1.73;;
38853;SDS011;24606;51.992;4.198;2023-02-27T21:56:08;7.47;;;1.40;;
38853;SDS011;24606;51.992;4.198;2023-02-27T22:01:13;6.25;;;2.03;;
38853;SDS011;24606;51.992;4.198;2023-02-27T22:06:16;8.38;;;1.30;;
38853;SDS011;24606;51.992;4.198;2023-02-27T22:11:20;4.40;;;1.00;;
38853;SDS011;24606;51.992;4.198;2023-02-27T22:16:23;7.68;;;1.40;;
38853;SDS011;24606;51.992;4.198;2023-02-27T22:21:25;5.30;;;1.40;;
38853;SDS011;24606;51.992;4.198;2023-02-27T22:26:27;8.13;;;1.73;;
38853;SDS011;24606;51.992;4.198;2023-02-27T22:31:31;4.75;;;0.95;;
38853;SDS011;24606;51.992;4.198;2023-02-27T22:36:35;2.97;;;0.93;;
38853;SDS011;24606;51.992;4.198;2023-02-27T22:41:38;6.18;;;1.70;;
38853;SDS011;24606;51.992;4.198;2023-02-27T22:46:42;2.35;;;1.10;;
38853;SDS011;24606;51.992;4.198;2023-02-27T22:51:46;5.38;;;1.20;;
38853;SDS011;24606;51.992;4.198;2023-02-27T22:56:49;4.90;;;1.05;;
38853;SDS011;24606;51.992;4.198;2023-02-27T23:01:53;2.45;;;1.08;;
38853;SDS011;24606;51.992;4.198;2023-02-27T23:06:55;3.97;;;1.20;;
38853;SDS011;24606;51.992;4.198;2023-02-27T23:11:57;1.35;;;0.77;;
38853;SDS011;24606;51.992;4.198;2023-02-27T23:17:02;3.70;;;1.10;;
38853;SDS011;24606;51.992;4.198;2023-02-27T23:22:04;3.72;;;1.27;;
38853;SDS011;24606;51.992;4.198;2023-02-27T23:27:06;3.63;;;0.90;;
38853;SDS011;24606;51.992;4.198;2023-02-27T23:32:12;1.85;;;0.77;;
38853;SDS011;24606;51.992;4.198;2023-02-27T23:37:14;6.60;;;1.30;;
38853;SDS011;24606;51.992;4.198;2023-02-27T23:42:16;3.35;;;1.10;;
38853;SDS011;24606;51.992;4.198;2023-02-27T23:47:19;3.43;;;1.43;;
38853;SDS011;24606;51.992;4.198;2023-02-27T23:52:39;2.30;;;0.80;;
38853;SDS011;24606;51.992;4.198;2023-02-27T23:57:41;2.35;;;1.10;;
